Time,TemperatureF,DewpointF,PressureIn,WindDirection,WindDirectionDegrees,WindSpeedMPH,WindSpeedGustMPH,Humidity,HourlyPrecipIn,Conditions,Clouds,dailyrainin,SoftwareType,DateUTC
2013-06-03 00:05:00,62.7,58.0,29.95,NW,322,1.0,5.0,85,0.00,,,0.00,weatherlink.com 1.10,2013-06-03 05:05:00,
2013-06-03 00:20:00,62.8,58.0,29.95,NNW,347,3.0,6.0,85,0.00,,,0.00,weatherlink.com 1.10,2013-06-03 05:20:00,
2013-06-03 00:35:00,62.7,58.0,29.95,NNW,331,2.0,4.0,85,0.00,,,0.00,weatherlink.com 1.10,2013-06-03 05:35:00,
2013-06-03 00:50:00,62.6,58.0,29.95,NNW,333,3.0,6.0,86,0.00,,,0.00,weatherlink.com 1.10,2013-06-03 05:50:00,
2013-06-03 01:05:00,62.4,58.0,29.95,NW,315,1.0,5.0,86,0.00,,,0.00,weatherlink.com 1.10,2013-06-03 06:05:00,
2013-06-03 01:20:00,62.3,58.0,29.95,NW,324,3.0,6.0,86,0.00,,,0.00,weatherlink.com 1.10,2013-06-03 06:20:00,
2013-06-03 01:35:00,62.3,58.0,29.95,NNW,338,3.0,7.0,86,0.00,,,0.00,weatherlink.com 1.10,2013-06-03 06:35:00,
2013-06-03 01:50:00,62.3,58.0,29.95,NNW,327,3.0,8.0,85,0.00,,,0.00,weatherlink.com 1.10,2013-06-03 06:50:00,
2013-06-03 02:05:00,62.2,58.0,29.94,North,350,1.0,4.0,85,0.00,,,0.00,weatherlink.com 1.10,2013-06-03 07:05:00,
2013-06-03 02:20:00,62.0,58.0,29.94,North,10,2.0,5.0,85,0.00,,,0.00,weatherlink.com 1.10,2013-06-03 07:20:00,
2013-06-03 02:35:00,61.9,57.0,29.94,North,359,4.0,7.0,85,0.00,,,0.00,weatherlink.com 1.10,2013-06-03 07:35:00,
2013-06-03 02:50:00,61.7,57.0,29.94,NNE,16,5.0,7.0,85,0.00,,,0.00,weatherlink.com 1.10,2013-06-03 07:50:00,
2013-06-03 03:05:00,61.4,57.0,29.94,NNE,13,0.0,7.0,86,0.00,,,0.00,weatherlink.com 1.10,2013-06-03 08:05:00,
2013-06-03 03:20:00,61.1,57.0,29.94,NNE,13,0.0,3.0,86,0.00,,,0.00,weatherlink.com 1.10,2013-06-03 08:20:00,
2013-06-03 03:35:00,60.4,57.0,29.94,NNE,13,0.0,1.0,88,0.00,,,0.00,weatherlink.com 1.10,2013-06-03 08:35:00,
2013-06-03 03:50:00,59.4,57.0,29.94,NNE,13,0.0,0.0,90,0.00,,,0.00,weatherlink.com 1.10,2013-06-03 08:50:00,
2013-06-03 04:05:00,58.9,56.0,29.94,NNE,13,0.0,0.0,91,0.00,,,0.00,weatherlink.com 1.10,2013-06-03 09:05:00,
2013-06-03 04:20:00,58.6,56.0,29.95,NNE,13,0.0,1.0,92,0.00,,,0.00,weatherlink.com 1.10,2013-06-03 09:20:00,
2013-06-03 04:35:00,58.7,56.0,29.96,NNE,13,0.0,2.0,92,0.00,,,0.00,weatherlink.com 1.10,2013-06-03 09:35:00,
2013-06-03 04:50:00,58.9,56.0,29.96,NNE,13,1.0,2.0,91,0.00,,,0.00,weatherlink.com 1.10,2013-06-03 09:50:00,
2013-06-03 05:05:00,58.9,56.0,29.96,NNE,13,2.0,2.0,91,0.00,,,0.00,weatherlink.com 1.10,2013-06-03 10:05:00,
2013-06-03 05:20:00,58.8,56.0,29.97,NNW,341,3.0,6.0,91,0.00,,,0.00,weatherlink.com 1.10,2013-06-03 10:20:00,
2013-06-03 05:35:00,58.7,56.0,29.98,NNW,347,0.0,3.0,91,0.00,,,0.00,weatherlink.com 1.10,2013-06-03 10:35:00,
2013-06-03 05:50:00,58.6,56.0,29.98,NNW,348,1.0,3.0,91,0.00,,,0.00,weatherlink.com 1.10,2013-06-03 10:50:00,
2013-06-03 06:06:00,58.4,56.0,29.98,NNW,348,0.0,1.0,92,0.00,,,0.00,weatherlink.com 1.10,2013-06-03 11:06:00,
2013-06-03 06:21:00,58.5,56.0,29.99,NNW,348,1.0,2.0,92,0.00,,,0.00,weatherlink.com 1.10,2013-06-03 11:21:00,
2013-06-03 06:36:00,58.6,56.0,29.99,NNW,347,1.0,3.0,92,0.00,,,0.00,weatherlink.com 1.10,2013-06-03 11:36:00,
2013-06-03 06:51:00,58.9,57.0,30.00,North,8,1.0,3.0,92,0.00,,,0.00,weatherlink.com 1.10,2013-06-03 11:51:00,
2013-06-03 07:06:00,59.5,57.0,30.01,NNW,348,0.0,3.0,91,0.00,,,0.00,weatherlink.com 1.10,2013-06-03 12:06:00,
2013-06-03 07:21:00,60.0,57.0,30.02,North,354,3.0,5.0,91,0.00,,,0.00,weatherlink.com 1.10,2013-06-03 12:21:00,
2013-06-03 07:36:00,60.3,57.0,30.02,NNW,339,1.0,9.0,90,0.00,,,0.00,weatherlink.com 1.10,2013-06-03 12:36:00,
2013-06-03 09:06:00,63.9,57.0,30.03,North,4,1.0,8.0,79,0.00,,,0.00,weatherlink.com 1.10,2013-06-03 14:06:00,
2013-06-03 09:21:00,64.8,57.0,30.03,NNE,23,4.0,8.0,77,0.00,,,0.00,weatherlink.com 1.10,2013-06-03 14:21:00,
2013-06-03 09:36:00,64.9,56.0,30.02,NNW,343,5.0,9.0,74,0.00,,,0.00,weatherlink.com 1.10,2013-06-03 14:36:00,
2013-06-03 09:51:00,64.7,56.0,30.02,NNW,338,5.0,9.0,74,0.00,,,0.00,weatherlink.com 1.10,2013-06-03 14:51:00,
2013-06-03 10:06:00,65.0,56.0,30.02,NNE,27,5.0,8.0,72,0.00,,,0.00,weatherlink.com 1.10,2013-06-03 15:06:00,
2013-06-03 10:21:00,64.7,57.0,30.01,North,350,6.0,9.0,76,0.00,,,0.00,weatherlink.com 1.10,2013-06-03 15:21:00,
2013-06-03 10:36:00,65.0,56.0,30.01,NNE,21,6.0,8.0,72,0.00,,,0.00,weatherlink.com 1.10,2013-06-03 15:36:00,
2013-06-03 10:51:00,65.7,55.0,30.01,North,354,3.0,8.0,68,0.00,,,0.00,weatherlink.com 1.10,2013-06-03 15:51:00,
2013-06-03 11:06:00,65.9,57.0,30.01,North,4,8.0,9.0,72,0.00,,,0.00,weatherlink.com 1.10,2013-06-03 16:06:00,
2013-06-03 11:21:00,65.6,56.0,30.01,NNW,334,8.0,11.0,71,0.00,,,0.00,weatherlink.com 1.10,2013-06-03 16:21:00,
2013-06-03 11:36:00,66.3,56.0,30.01,North,354,4.0,10.0,69,0.00,,,0.00,weatherlink.com 1.10,2013-06-03 16:36:00,
2013-06-03 11:51:00,66.4,56.0,30.01,NNE,25,6.0,9.0,69,0.00,,,0.00,weatherlink.com 1.10,2013-06-03 16:51:00,
2013-06-03 12:06:00,67.0,56.0,30.01,NNE,12,4.0,9.0,68,0.00,,,0.00,weatherlink.com 1.10,2013-06-03 17:06:00,
2013-06-03 12:21:00,66.9,55.0,30.01,NNW,347,1.0,6.0,66,0.00,,,0.00,weatherlink.com 1.10,2013-06-03 17:21:00,
2013-06-03 12:36:00,67.0,55.0,30.00,NW,316,2.0,9.0,66,0.00,,,0.00,weatherlink.com 1.10,2013-06-03 17:36:00,
2013-06-03 12:51:00,66.6,56.0,30.00,NW,314,6.0,8.0,68,0.00,,,0.00,weatherlink.com 1.10,2013-06-03 17:51:00,
2013-06-03 13:06:00,66.9,55.0,29.99,NW,312,2.0,9.0,65,0.00,,,0.00,weatherlink.com 1.10,2013-06-03 18:06:00,
2013-06-03 13:21:00,67.8,55.0,29.98,WNW,301,0.0,8.0,64,0.00,,,0.00,weatherlink.com 1.10,2013-06-03 18:21:00,
2013-06-03 13:36:00,67.4,56.0,29.98,NNE,19,7.0,10.0,66,0.00,,,0.00,weatherlink.com 1.10,2013-06-03 18:36:00,
2013-06-03 13:51:00,67.8,55.0,29.98,NE,39,3.0,8.0,63,0.00,,,0.00,weatherlink.com 1.10,2013-06-03 18:51:00,
2013-06-03 14:06:00,69.0,55.0,29.98,North,4,5.0,7.0,61,0.00,,,0.00,weatherlink.com 1.10,2013-06-03 19:06:00,
2013-06-03 14:21:00,69.2,55.0,29.98,ENE,75,4.0,8.0,62,0.00,,,0.00,weatherlink.com 1.10,2013-06-03 19:21:00,
2013-06-03 14:36:00,68.8,55.0,29.97,NE,41,0.0,8.0,61,0.00,,,0.00,weatherlink.com 1.10,2013-06-03 19:36:00,
2013-06-03 14:51:00,68.8,54.0,29.97,NNW,348,6.0,8.0,59,0.00,,,0.00,weatherlink.com 1.10,2013-06-03 19:51:00,
2013-06-03 15:06:00,69.9,55.0,29.96,NNE,23,0.0,6.0,59,0.00,,,0.00,weatherlink.com 1.10,2013-06-03 20:06:00,
2013-06-03 15:21:00,69.9,54.0,29.95,North,354,1.0,9.0,58,0.00,,,0.00,weatherlink.com 1.10,2013-06-03 20:21:00,
2013-06-03 15:37:00,69.5,55.0,29.95,NE,41,1.0,8.0,61,0.00,,,0.00,weatherlink.com 1.10,2013-06-03 20:37:00,
2013-06-03 15:51:00,70.0,55.0,29.95,NNE,24,5.0,9.0,59,0.00,,,0.00,weatherlink.com 1.10,2013-06-03 20:51:00,
2013-06-03 16:06:00,71.1,54.0,29.95,NNE,33,1.0,5.0,55,0.00,,,0.00,weatherlink.com 1.10,2013-06-03 21:06:00,
2013-06-03 16:21:00,69.8,54.0,29.95,NNE,27,1.0,7.0,57,0.00,,,0.00,weatherlink.com 1.10,2013-06-03 21:21:00,
2013-06-03 16:36:00,70.1,54.0,29.95,NNE,33,5.0,6.0,58,0.00,,,0.00,weatherlink.com 1.10,2013-06-03 21:36:00,
2013-06-03 16:52:00,69.7,55.0,29.95,NW,321,2.0,6.0,59,0.00,,,0.00,weatherlink.com 1.10,2013-06-03 21:52:00,
2013-06-03 17:07:00,70.2,54.0,29.95,NNE,18,1.0,7.0,56,0.00,,,0.00,weatherlink.com 1.10,2013-06-03 22:07:00,
2013-06-03 17:21:00,70.6,54.0,29.95,NW,321,0.0,6.0,57,0.00,,,0.00,weatherlink.com 1.10,2013-06-03 22:21:00,
2013-06-03 17:36:00,70.9,54.0,29.95,WSW,243,3.0,8.0,55,0.00,,,0.00,weatherlink.com 1.10,2013-06-03 22:36:00,
2013-06-03 17:52:00,70.7,54.0,29.95,NNW,328,1.0,6.0,56,0.00,,,0.00,weatherlink.com 1.10,2013-06-03 22:52:00,
2013-06-03 18:07:00,71.0,54.0,29.94,North,349,2.0,6.0,56,0.00,,,0.00,weatherlink.com 1.10,2013-06-03 23:07:00,
2013-06-03 18:22:00,71.1,54.0,29.94,NNE,23,3.0,6.0,55,0.00,,,0.00,weatherlink.com 1.10,2013-06-03 23:22:00,
2013-06-03 18:37:00,70.8,55.0,29.94,NNW,339,4.0,8.0,57,0.00,,,0.00,weatherlink.com 1.10,2013-06-03 23:37:00,
2013-06-03 18:52:00,70.2,55.0,29.94,NE,34,4.0,7.0,58,0.00,,,0.00,weatherlink.com 1.10,2013-06-03 23:52:00,
2013-06-03 19:07:00,69.9,55.0,29.94,NNE,18,5.0,8.0,59,0.00,,,0.00,weatherlink.com 1.10,2013-06-04 00:07:00,
2013-06-03 19:22:00,69.4,55.0,29.94,NNE,20,2.0,6.0,60,0.00,,,0.00,weatherlink.com 1.10,2013-06-04 00:22:00,
2013-06-03 19:37:00,68.9,56.0,29.95,NNE,12,4.0,7.0,63,0.00,,,0.00,weatherlink.com 1.10,2013-06-04 00:37:00,
2013-06-03 19:52:00,68.1,56.0,29.95,North,8,2.0,4.0,65,0.00,,,0.00,weatherlink.com 1.10,2013-06-04 00:52:00,
2013-06-03 20:07:00,67.1,56.0,29.95,NNE,12,1.0,4.0,68,0.00,,,0.00,weatherlink.com 1.10,2013-06-04 01:07:00,
2013-06-03 20:22:00,66.2,56.0,29.95,NNE,12,1.0,4.0,70,0.00,,,0.00,weatherlink.com 1.10,2013-06-04 01:22:00,
2013-06-03 20:37:00,65.4,56.0,29.95,NE,37,1.0,4.0,72,0.00,,,0.00,weatherlink.com 1.10,2013-06-04 01:37:00,
2013-06-03 20:52:00,64.9,56.0,29.96,NE,37,1.0,4.0,72,0.00,,,0.00,weatherlink.com 1.10,2013-06-04 01:52:00,
2013-06-03 21:07:00,64.3,56.0,29.96,NE,37,0.0,2.0,75,0.00,,,0.00,weatherlink.com 1.10,2013-06-04 02:07:00,
2013-06-03 21:22:00,63.3,56.0,29.97,NE,37,0.0,0.0,77,0.00,,,0.00,weatherlink.com 1.10,2013-06-04 02:22:00,
2013-06-03 21:37:00,62.1,56.0,29.98,NE,37,0.0,1.0,80,0.00,,,0.00,weatherlink.com 1.10,2013-06-04 02:37:00,
2013-06-03 21:52:00,61.4,56.0,29.98,NE,37,1.0,3.0,81,0.00,,,0.00,weatherlink.com 1.10,2013-06-04 02:52:00,
2013-06-03 22:07:00,61.8,55.0,29.98,NE,37,0.0,2.0,79,0.00,,,0.00,weatherlink.com 1.10,2013-06-04 03:07:00,
2013-06-03 22:22:00,61.3,55.0,29.99,NE,37,0.0,0.0,81,0.00,,,0.00,weatherlink.com 1.10,2013-06-04 03:22:00,
2013-06-03 22:37:00,60.3,55.0,29.99,NE,37,0.0,1.0,83,0.00,,,0.00,weatherlink.com 1.10,2013-06-04 03:37:00,
2013-06-03 22:52:00,59.6,56.0,29.99,NE,37,0.0,0.0,86,0.00,,,0.00,weatherlink.com 1.10,2013-06-04 03:52:00,
2013-06-03 23:07:00,59.1,55.0,29.99,NE,37,0.0,1.0,87,0.00,,,0.00,weatherlink.com 1.10,2013-06-04 04:07:00,
2013-06-03 23:22:00,58.6,55.0,29.99,NE,37,0.0,0.0,87,0.00,,,0.00,weatherlink.com 1.10,2013-06-04 04:22:00,
2013-06-03 23:37:00,58.2,55.0,30.00,NE,37,0.0,1.0,88,0.00,,,0.00,weatherlink.com 1.10,2013-06-04 04:37:00,
2013-06-03 23:52:00,57.9,55.0,30.00,NE,37,0.0,0.0,89,0.00,,,0.00,weatherlink.com 1.10,2013-06-04 04:52:00,